sensor_id;sensor_type;location;lat;lon;timestamp;temperature;humidity
61392;DHT22;47261;52.892;5.738;2022-11-15T00:01:50;8.10;95.50
61392;DHT22;47261;52.892;5.738;2022-11-15T00:04:16;8.10;95.50
61392;DHT22;47261;52.892;5.738;2022-11-15T00:06:41;8.00;95.50
61392;DHT22;47261;52.892;5.738;2022-11-15T00:09:07;8.00;95.50
61392;DHT22;47261;52.892;5.738;2022-11-15T00:11:33;8.00;95.50
61392;DHT22;47261;52.892;5.738;2022-11-15T00:13:59;8.00;95.60
61392;DHT22;47261;52.892;5.738;2022-11-15T00:16:27;7.90;95.60
61392;DHT22;47261;52.892;5.738;2022-11-15T00:18:53;7.90;95.60
61392;DHT22;47261;52.892;5.738;2022-11-15T00:21:19;7.90;95.60
61392;DHT22;47261;52.892;5.738;2022-11-15T00:23:44;7.90;95.70
61392;DHT22;47261;52.892;5.738;2022-11-15T00:26:14;7.80;95.70
61392;DHT22;47261;52.892;5.738;2022-11-15T00:28:41;7.80;95.70
61392;DHT22;47261;52.892;5.738;2022-11-15T00:31:09;7.70;95.70
61392;DHT22;47261;52.892;5.738;2022-11-15T00:33:35;7.70;95.80
61392;DHT22;47261;52.892;5.738;2022-11-15T00:36:07;7.70;95.90
61392;DHT22;47261;52.892;5.738;2022-11-15T00:38:35;7.60;95.90
61392;DHT22;47261;52.892;5.738;2022-11-15T00:41:03;7.60;95.90
61392;DHT22;47261;52.892;5.738;2022-11-15T00:43:29;7.60;95.90
61392;DHT22;47261;52.892;5.738;2022-11-15T00:45:54;7.50;96.00
61392;DHT22;47261;52.892;5.738;2022-11-15T00:48:20;7.50;96.00
61392;DHT22;47261;52.892;5.738;2022-11-15T00:50:46;7.50;96.10
61392;DHT22;47261;52.892;5.738;2022-11-15T00:53:11;7.50;96.10
61392;DHT22;47261;52.892;5.738;2022-11-15T00:55:37;7.50;96.10
61392;DHT22;47261;52.892;5.738;2022-11-15T00:58:02;7.50;96.10
61392;DHT22;47261;52.892;5.738;2022-11-15T01:00:28;7.50;96.10
61392;DHT22;47261;52.892;5.738;2022-11-15T01:02:53;7.40;96.10
61392;DHT22;47261;52.892;5.738;2022-11-15T01:05:19;7.40;96.20
61392;DHT22;47261;52.892;5.738;2022-11-15T01:07:45;7.40;96.30
61392;DHT22;47261;52.892;5.738;2022-11-15T01:10:10;7.40;96.40
61392;DHT22;47261;52.892;5.738;2022-11-15T01:12:36;7.40;96.60
61392;DHT22;47261;52.892;5.738;2022-11-15T01:15:03;7.40;96.60
61392;DHT22;47261;52.892;5.738;2022-11-15T01:17:30;7.40;96.60
61392;DHT22;47261;52.892;5.738;2022-11-15T01:19:56;7.40;96.70
61392;DHT22;47261;52.892;5.738;2022-11-15T01:22:21;7.40;96.70
61392;DHT22;47261;52.892;5.738;2022-11-15T01:24:48;7.40;96.80
61392;DHT22;47261;52.892;5.738;2022-11-15T01:27:14;7.40;96.80
61392;DHT22;47261;52.892;5.738;2022-11-15T01:29:39;7.40;96.80
61392;DHT22;47261;52.892;5.738;2022-11-15T01:32:05;7.40;96.80
61392;DHT22;47261;52.892;5.738;2022-11-15T01:34:31;7.50;96.80
61392;DHT22;47261;52.892;5.738;2022-11-15T01:36:56;7.50;96.70
61392;DHT22;47261;52.892;5.738;2022-11-15T01:39:22;7.50;96.70
61392;DHT22;47261;52.892;5.738;2022-11-15T01:41:47;7.50;96.70
61392;DHT22;47261;52.892;5.738;2022-11-15T01:44:38;7.50;96.60
61392;DHT22;47261;52.892;5.738;2022-11-15T01:50:06;7.60;96.60
61392;DHT22;47261;52.892;5.738;2022-11-15T01:52:34;7.60;96.50
61392;DHT22;47261;52.892;5.738;2022-11-15T01:55:11;7.60;96.50
61392;DHT22;47261;52.892;5.738;2022-11-15T01:57:41;7.60;96.50
61392;DHT22;47261;52.892;5.738;2022-11-15T02:00:08;7.70;96.80
61392;DHT22;47261;52.892;5.738;2022-11-15T02:02:35;7.70;96.50
61392;DHT22;47261;52.892;5.738;2022-11-15T02:05:01;7.70;96.50
61392;DHT22;47261;52.892;5.738;2022-11-15T02:07:28;7.70;96.50
61392;DHT22;47261;52.892;5.738;2022-11-15T02:09:55;7.70;96.50
61392;DHT22;47261;52.892;5.738;2022-11-15T02:12:22;7.70;96.70
61392;DHT22;47261;52.892;5.738;2022-11-15T02:14:51;7.80;96.50
61392;DHT22;47261;52.892;5.738;2022-11-15T02:17:43;7.80;96.50
61392;DHT22;47261;52.892;5.738;2022-11-15T02:26:25;7.80;96.40
61392;DHT22;47261;52.892;5.738;2022-11-15T02:29:03;7.80;96.40
61392;DHT22;47261;52.892;5.738;2022-11-15T02:31:40;7.80;96.40
61392;DHT22;47261;52.892;5.738;2022-11-15T02:42:28;7.80;96.40
61392;DHT22;47261;52.892;5.738;2022-11-15T02:45:25;7.80;96.40
61392;DHT22;47261;52.892;5.738;2022-11-15T02:47:54;7.90;96.50
61392;DHT22;47261;52.892;5.738;2022-11-15T02:50:23;7.90;96.50
61392;DHT22;47261;52.892;5.738;2022-11-15T02:52:50;7.90;96.60
61392;DHT22;47261;52.892;5.738;2022-11-15T02:55:37;7.90;96.60
61392;DHT22;47261;52.892;5.738;2022-11-15T03:06:42;8.00;96.80
61392;DHT22;47261;52.892;5.738;2022-11-15T03:12:07;8.00;96.80
61392;DHT22;47261;52.892;5.738;2022-11-15T03:15:00;8.00;96.80
61392;DHT22;47261;52.892;5.738;2022-11-15T03:17:30;8.00;96.90
61392;DHT22;47261;52.892;5.738;2022-11-15T03:20:03;8.10;96.90
61392;DHT22;47261;52.892;5.738;2022-11-15T03:22:34;8.10;96.90
61392;DHT22;47261;52.892;5.738;2022-11-15T03:25:05;8.10;96.90
61392;DHT22;47261;52.892;5.738;2022-11-15T03:27:36;8.10;96.90
61392;DHT22;47261;52.892;5.738;2022-11-15T03:30:06;8.10;96.90
61392;DHT22;47261;52.892;5.738;2022-11-15T03:32:37;8.20;96.90
61392;DHT22;47261;52.892;5.738;2022-11-15T03:35:05;8.20;97.00
61392;DHT22;47261;52.892;5.738;2022-11-15T03:37:42;8.20;97.00
61392;DHT22;47261;52.892;5.738;2022-11-15T03:40:10;8.20;97.00
61392;DHT22;47261;52.892;5.738;2022-11-15T03:42:48;8.20;97.00
61392;DHT22;47261;52.892;5.738;2022-11-15T03:45:28;8.30;97.10
61392;DHT22;47261;52.892;5.738;2022-11-15T03:48:05;8.30;97.10
61392;DHT22;47261;52.892;5.738;2022-11-15T03:50:33;8.30;97.10
61392;DHT22;47261;52.892;5.738;2022-11-15T03:52:59;8.30;97.00
61392;DHT22;47261;52.892;5.738;2022-11-15T03:55:24;8.40;97.10
61392;DHT22;47261;52.892;5.738;2022-11-15T03:57:53;8.40;97.10
61392;DHT22;47261;52.892;5.738;2022-11-15T04:00:20;8.40;97.30
61392;DHT22;47261;52.892;5.738;2022-11-15T04:02:45;8.40;97.10
61392;DHT22;47261;52.892;5.738;2022-11-15T04:05:11;8.50;97.10
61392;DHT22;47261;52.892;5.738;2022-11-15T04:07:36;8.50;97.10
61392;DHT22;47261;52.892;5.738;2022-11-15T04:10:03;8.50;97.10
61392;DHT22;47261;52.892;5.738;2022-11-15T04:12:30;8.50;97.10
61392;DHT22;47261;52.892;5.738;2022-11-15T04:17:39;8.60;97.20
61392;DHT22;47261;52.892;5.738;2022-11-15T04:20:09;8.60;97.20
61392;DHT22;47261;52.892;5.738;2022-11-15T04:22:55;8.60;97.20
61392;DHT22;47261;52.892;5.738;2022-11-15T04:25:40;8.60;97.20
61392;DHT22;47261;52.892;5.738;2022-11-15T04:28:06;8.70;97.20
61392;DHT22;47261;52.892;5.738;2022-11-15T04:30:32;8.70;97.20
61392;DHT22;47261;52.892;5.738;2022-11-15T04:32:57;8.80;97.20
61392;DHT22;47261;52.892;5.738;2022-11-15T04:35:23;8.80;97.30
61392;DHT22;47261;52.892;5.738;2022-11-15T04:37:49;8.80;97.30
61392;DHT22;47261;52.892;5.738;2022-11-15T04:40:14;8.90;97.30
61392;DHT22;47261;52.892;5.738;2022-11-15T04:42:41;8.90;97.30
61392;DHT22;47261;52.892;5.738;2022-11-15T04:45:08;9.00;97.40
61392;DHT22;47261;52.892;5.738;2022-11-15T04:47:34;9.00;97.30
61392;DHT22;47261;52.892;5.738;2022-11-15T04:49:59;9.10;97.40
61392;DHT22;47261;52.892;5.738;2022-11-15T04:52:25;9.10;97.40
61392;DHT22;47261;52.892;5.738;2022-11-15T04:54:51;9.10;97.40
61392;DHT22;47261;52.892;5.738;2022-11-15T04:57:16;9.10;97.40
61392;DHT22;47261;52.892;5.738;2022-11-15T04:59:42;9.20;97.40
61392;DHT22;47261;52.892;5.738;2022-11-15T05:02:07;9.20;97.50
61392;DHT22;47261;52.892;5.738;2022-11-15T05:04:33;9.30;97.50
61392;DHT22;47261;52.892;5.738;2022-11-15T05:06:59;9.30;97.50
61392;DHT22;47261;52.892;5.738;2022-11-15T05:09:24;9.30;97.50
61392;DHT22;47261;52.892;5.738;2022-11-15T05:11:50;9.40;97.50
61392;DHT22;47261;52.892;5.738;2022-11-15T05:14:16;9.40;97.50
61392;DHT22;47261;52.892;5.738;2022-11-15T05:16:42;9.50;97.60
61392;DHT22;47261;52.892;5.738;2022-11-15T05:19:08;9.50;97.60
61392;DHT22;47261;52.892;5.738;2022-11-15T05:21:34;9.50;97.60
61392;DHT22;47261;52.892;5.738;2022-11-15T05:24:01;9.60;97.60
61392;DHT22;47261;52.892;5.738;2022-11-15T05:26:27;9.60;97.60
61392;DHT22;47261;52.892;5.738;2022-11-15T05:28:57;9.60;97.70
61392;DHT22;47261;52.892;5.738;2022-11-15T05:31:23;9.70;97.70
61392;DHT22;47261;52.892;5.738;2022-11-15T05:33:50;9.70;97.70
61392;DHT22;47261;52.892;5.738;2022-11-15T05:36:39;9.70;97.70
61392;DHT22;47261;52.892;5.738;2022-11-15T05:39:06;9.70;97.70
61392;DHT22;47261;52.892;5.738;2022-11-15T05:41:35;9.80;97.70
61392;DHT22;47261;52.892;5.738;2022-11-15T05:44:04;9.80;97.70
61392;DHT22;47261;52.892;5.738;2022-11-15T05:46:33;9.80;97.70
61392;DHT22;47261;52.892;5.738;2022-11-15T05:48:59;9.90;97.70
61392;DHT22;47261;52.892;5.738;2022-11-15T05:51:27;9.90;97.80
61392;DHT22;47261;52.892;5.738;2022-11-15T05:53:56;9.90;97.80
61392;DHT22;47261;52.892;5.738;2022-11-15T05:56:22;10.00;97.80
61392;DHT22;47261;52.892;5.738;2022-11-15T05:58:48;10.00;97.80
61392;DHT22;47261;52.892;5.738;2022-11-15T06:01:13;10.00;97.80
61392;DHT22;47261;52.892;5.738;2022-11-15T06:03:39;10.10;97.90
61392;DHT22;47261;52.892;5.738;2022-11-15T06:06:05;10.10;97.90
61392;DHT22;47261;52.892;5.738;2022-11-15T06:08:31;10.20;97.90
61392;DHT22;47261;52.892;5.738;2022-11-15T06:10:56;10.20;97.90
61392;DHT22;47261;52.892;5.738;2022-11-15T06:13:22;10.30;98.00
61392;DHT22;47261;52.892;5.738;2022-11-15T06:15:47;10.30;98.00
61392;DHT22;47261;52.892;5.738;2022-11-15T06:18:13;10.30;98.00
61392;DHT22;47261;52.892;5.738;2022-11-15T06:20:39;10.40;98.00
61392;DHT22;47261;52.892;5.738;2022-11-15T06:23:05;10.40;98.10
61392;DHT22;47261;52.892;5.738;2022-11-15T06:25:31;10.50;98.10
61392;DHT22;47261;52.892;5.738;2022-11-15T06:27:57;10.50;98.10
61392;DHT22;47261;52.892;5.738;2022-11-15T06:30:25;10.50;98.20
61392;DHT22;47261;52.892;5.738;2022-11-15T06:32:51;10.60;98.20
61392;DHT22;47261;52.892;5.738;2022-11-15T06:35:17;10.60;98.30
61392;DHT22;47261;52.892;5.738;2022-11-15T06:37:43;10.70;98.30
61392;DHT22;47261;52.892;5.738;2022-11-15T06:40:09;10.70;98.30
61392;DHT22;47261;52.892;5.738;2022-11-15T06:42:35;10.70;98.30
61392;DHT22;47261;52.892;5.738;2022-11-15T06:45:00;10.80;98.40
61392;DHT22;47261;52.892;5.738;2022-11-15T06:47:27;10.80;98.40
61392;DHT22;47261;52.892;5.738;2022-11-15T06:49:52;10.80;98.50
61392;DHT22;47261;52.892;5.738;2022-11-15T06:52:18;10.90;98.50
61392;DHT22;47261;52.892;5.738;2022-11-15T06:54:45;10.90;98.60
61392;DHT22;47261;52.892;5.738;2022-11-15T06:57:11;10.90;98.60
61392;DHT22;47261;52.892;5.738;2022-11-15T06:59:36;11.00;98.60
61392;DHT22;47261;52.892;5.738;2022-11-15T07:02:02;11.00;98.60
61392;DHT22;47261;52.892;5.738;2022-11-15T07:04:28;11.00;98.70
61392;DHT22;47261;52.892;5.738;2022-11-15T07:06:54;11.00;98.70
61392;DHT22;47261;52.892;5.738;2022-11-15T07:09:19;11.10;98.70
61392;DHT22;47261;52.892;5.738;2022-11-15T07:11:45;11.10;98.70
61392;DHT22;47261;52.892;5.738;2022-11-15T07:14:10;11.10;98.70
61392;DHT22;47261;52.892;5.738;2022-11-15T07:16:37;11.10;98.80
61392;DHT22;47261;52.892;5.738;2022-11-15T07:19:03;11.10;98.80
61392;DHT22;47261;52.892;5.738;2022-11-15T07:21:30;11.10;98.80
61392;DHT22;47261;52.892;5.738;2022-11-15T07:23:55;11.10;98.80
61392;DHT22;47261;52.892;5.738;2022-11-15T07:26:21;11.20;98.90
61392;DHT22;47261;52.892;5.738;2022-11-15T07:28:47;11.20;98.90
61392;DHT22;47261;52.892;5.738;2022-11-15T07:31:12;11.20;98.90
61392;DHT22;47261;52.892;5.738;2022-11-15T07:33:38;11.20;98.90
61392;DHT22;47261;52.892;5.738;2022-11-15T07:36:05;11.30;98.90
61392;DHT22;47261;52.892;5.738;2022-11-15T07:38:32;11.30;98.90
61392;DHT22;47261;52.892;5.738;2022-11-15T07:40:59;11.30;98.90
61392;DHT22;47261;52.892;5.738;2022-11-15T07:43:25;11.30;98.90
61392;DHT22;47261;52.892;5.738;2022-11-15T07:45:53;11.40;98.90
61392;DHT22;47261;52.892;5.738;2022-11-15T07:48:19;11.40;98.90
61392;DHT22;47261;52.892;5.738;2022-11-15T07:50:44;11.40;98.90
61392;DHT22;47261;52.892;5.738;2022-11-15T07:53:10;11.40;99.10
61392;DHT22;47261;52.892;5.738;2022-11-15T07:55:36;11.40;98.80
61392;DHT22;47261;52.892;5.738;2022-11-15T07:58:02;11.50;98.80
61392;DHT22;47261;52.892;5.738;2022-11-15T08:00:28;11.50;98.80
61392;DHT22;47261;52.892;5.738;2022-11-15T08:03:08;11.50;98.80
61392;DHT22;47261;52.892;5.738;2022-11-15T08:05:34;11.50;98.70
61392;DHT22;47261;52.892;5.738;2022-11-15T08:08:01;11.60;98.80
61392;DHT22;47261;52.892;5.738;2022-11-15T08:10:27;11.60;98.70
61392;DHT22;47261;52.892;5.738;2022-11-15T08:13:07;11.60;98.70
61392;DHT22;47261;52.892;5.738;2022-11-15T08:15:34;11.60;98.60
61392;DHT22;47261;52.892;5.738;2022-11-15T08:18:06;11.60;98.60
61392;DHT22;47261;52.892;5.738;2022-11-15T08:20:32;11.60;98.60
61392;DHT22;47261;52.892;5.738;2022-11-15T08:23:01;11.60;98.60
61392;DHT22;47261;52.892;5.738;2022-11-15T08:25:28;11.60;98.50
61392;DHT22;47261;52.892;5.738;2022-11-15T08:27:55;11.60;98.50
61392;DHT22;47261;52.892;5.738;2022-11-15T08:30:22;11.60;98.50
61392;DHT22;47261;52.892;5.738;2022-11-15T08:32:49;11.70;98.60
61392;DHT22;47261;52.892;5.738;2022-11-15T08:35:15;11.70;98.60
61392;DHT22;47261;52.892;5.738;2022-11-15T08:37:41;11.80;98.60
61392;DHT22;47261;52.892;5.738;2022-11-15T08:40:07;11.80;98.60
61392;DHT22;47261;52.892;5.738;2022-11-15T08:42:33;11.80;98.60
61392;DHT22;47261;52.892;5.738;2022-11-15T08:44:59;11.80;98.60
61392;DHT22;47261;52.892;5.738;2022-11-15T08:47:25;11.90;98.60
61392;DHT22;47261;52.892;5.738;2022-11-15T08:49:50;11.90;98.60
61392;DHT22;47261;52.892;5.738;2022-11-15T08:52:16;12.00;98.70
61392;DHT22;47261;52.892;5.738;2022-11-15T08:54:42;12.00;98.70
61392;DHT22;47261;52.892;5.738;2022-11-15T08:57:07;12.10;98.70
61392;DHT22;47261;52.892;5.738;2022-11-15T08:59:35;12.10;98.70
61392;DHT22;47261;52.892;5.738;2022-11-15T09:02:01;12.10;98.60
61392;DHT22;47261;52.892;5.738;2022-11-15T09:04:27;12.10;98.50
61392;DHT22;47261;52.892;5.738;2022-11-15T09:06:52;12.10;98.40
61392;DHT22;47261;52.892;5.738;2022-11-15T09:09:18;12.10;98.30
61392;DHT22;47261;52.892;5.738;2022-11-15T09:11:44;12.10;98.20
61392;DHT22;47261;52.892;5.738;2022-11-15T09:14:13;12.00;98.20
61392;DHT22;47261;52.892;5.738;2022-11-15T09:16:39;12.00;98.20
61392;DHT22;47261;52.892;5.738;2022-11-15T09:19:05;12.00;98.20
61392;DHT22;47261;52.892;5.738;2022-11-15T09:21:31;11.90;98.20
61392;DHT22;47261;52.892;5.738;2022-11-15T09:23:57;12.00;98.20
61392;DHT22;47261;52.892;5.738;2022-11-15T09:26:23;12.00;98.20
61392;DHT22;47261;52.892;5.738;2022-11-15T09:28:49;12.00;98.20
61392;DHT22;47261;52.892;5.738;2022-11-15T09:31:15;12.10;98.20
61392;DHT22;47261;52.892;5.738;2022-11-15T09:33:43;12.10;98.30
61392;DHT22;47261;52.892;5.738;2022-11-15T09:36:10;12.20;98.30
61392;DHT22;47261;52.892;5.738;2022-11-15T09:38:36;12.30;98.30
61392;DHT22;47261;52.892;5.738;2022-11-15T09:43:48;12.40;98.30
61392;DHT22;47261;52.892;5.738;2022-11-15T09:48:55;12.50;98.20
61392;DHT22;47261;52.892;5.738;2022-11-15T09:51:34;12.60;98.20
61392;DHT22;47261;52.892;5.738;2022-11-15T09:56:31;12.60;98.10
61392;DHT22;47261;52.892;5.738;2022-11-15T10:04:23;12.70;98.10
61392;DHT22;47261;52.892;5.738;2022-11-15T10:09:28;12.70;98.00
61392;DHT22;47261;52.892;5.738;2022-11-15T10:11:56;12.70;98.00
61392;DHT22;47261;52.892;5.738;2022-11-15T10:14:23;12.80;98.00
61392;DHT22;47261;52.892;5.738;2022-11-15T10:27:29;13.00;97.80
61392;DHT22;47261;52.892;5.738;2022-11-15T10:29:55;13.00;97.70
61392;DHT22;47261;52.892;5.738;2022-11-15T10:32:21;12.90;97.70
61392;DHT22;47261;52.892;5.738;2022-11-15T10:34:48;12.90;97.60
61392;DHT22;47261;52.892;5.738;2022-11-15T10:37:14;12.90;97.60
61392;DHT22;47261;52.892;5.738;2022-11-15T10:40:13;12.90;97.60
61392;DHT22;47261;52.892;5.738;2022-11-15T10:42:40;12.90;97.60
61392;DHT22;47261;52.892;5.738;2022-11-15T10:45:25;12.80;97.60
61392;DHT22;47261;52.892;5.738;2022-11-15T10:47:51;12.90;97.60
61392;DHT22;47261;52.892;5.738;2022-11-15T10:50:29;12.90;97.60
61392;DHT22;47261;52.892;5.738;2022-11-15T10:52:55;12.90;97.60
61392;DHT22;47261;52.892;5.738;2022-11-15T10:55:25;12.90;97.50
61392;DHT22;47261;52.892;5.738;2022-11-15T10:57:54;13.00;97.60
61392;DHT22;47261;52.892;5.738;2022-11-15T11:10:36;13.10;97.20
61392;DHT22;47261;52.892;5.738;2022-11-15T11:15:54;13.10;97.00
61392;DHT22;47261;52.892;5.738;2022-11-15T11:18:30;13.20;97.30
61392;DHT22;47261;52.892;5.738;2022-11-15T11:21:04;13.20;97.00
61392;DHT22;47261;52.892;5.738;2022-11-15T11:24:05;13.30;96.90
61392;DHT22;47261;52.892;5.738;2022-11-15T11:35:39;13.80;96.10
61392;DHT22;47261;52.892;5.738;2022-11-15T11:41:19;13.90;94.90
61392;DHT22;47261;52.892;5.738;2022-11-15T11:47:12;14.10;94.20
61392;DHT22;47261;52.892;5.738;2022-11-15T11:52:11;14.10;94.00
61392;DHT22;47261;52.892;5.738;2022-11-15T11:55:03;14.10;93.60
61392;DHT22;47261;52.892;5.738;2022-11-15T12:00:23;14.10;92.60
61392;DHT22;47261;52.892;5.738;2022-11-15T12:03:23;14.10;92.00
61392;DHT22;47261;52.892;5.738;2022-11-15T12:06:07;14.10;92.40
61392;DHT22;47261;52.892;5.738;2022-11-15T12:08:48;14.20;92.40
61392;DHT22;47261;52.892;5.738;2022-11-15T12:17:29;14.10;91.80
61392;DHT22;47261;52.892;5.738;2022-11-15T12:20:00;14.10;91.30
61392;DHT22;47261;52.892;5.738;2022-11-15T12:22:37;14.10;90.90
61392;DHT22;47261;52.892;5.738;2022-11-15T12:25:13;14.20;90.70
61392;DHT22;47261;52.892;5.738;2022-11-15T12:27:45;14.20;90.80
61392;DHT22;47261;52.892;5.738;2022-11-15T12:30:15;14.20;90.80
61392;DHT22;47261;52.892;5.738;2022-11-15T12:32:54;14.20;90.20
61392;DHT22;47261;52.892;5.738;2022-11-15T12:35:34;14.20;90.00
61392;DHT22;47261;52.892;5.738;2022-11-15T12:38:00;14.20;90.10
61392;DHT22;47261;52.892;5.738;2022-11-15T12:40:32;14.20;90.30
61392;DHT22;47261;52.892;5.738;2022-11-15T12:45:44;14.20;90.50
61392;DHT22;47261;52.892;5.738;2022-11-15T12:56:09;14.10;90.90
61392;DHT22;47261;52.892;5.738;2022-11-15T13:01:10;14.10;91.10
61392;DHT22;47261;52.892;5.738;2022-11-15T13:03:36;14.20;91.00
61392;DHT22;47261;52.892;5.738;2022-11-15T13:06:42;14.10;90.90
61392;DHT22;47261;52.892;5.738;2022-11-15T13:19:58;14.00;90.90
61392;DHT22;47261;52.892;5.738;2022-11-15T13:22:25;14.00;90.90
61392;DHT22;47261;52.892;5.738;2022-11-15T13:28:01;14.00;91.00
61392;DHT22;47261;52.892;5.738;2022-11-15T13:30:29;14.10;90.80
61392;DHT22;47261;52.892;5.738;2022-11-15T13:32:57;14.10;90.90
61392;DHT22;47261;52.892;5.738;2022-11-15T13:35:27;14.00;91.00
61392;DHT22;47261;52.892;5.738;2022-11-15T13:37:54;14.00;91.10
61392;DHT22;47261;52.892;5.738;2022-11-15T13:40:27;14.00;91.10
61392;DHT22;47261;52.892;5.738;2022-11-15T13:42:56;13.90;91.10
61392;DHT22;47261;52.892;5.738;2022-11-15T13:45:22;13.80;91.00
61392;DHT22;47261;52.892;5.738;2022-11-15T13:47:54;13.70;91.10
61392;DHT22;47261;52.892;5.738;2022-11-15T13:50:27;13.70;91.20
61392;DHT22;47261;52.892;5.738;2022-11-15T13:52:57;13.60;91.30
61392;DHT22;47261;52.892;5.738;2022-11-15T13:55:24;13.60;91.40
61392;DHT22;47261;52.892;5.738;2022-11-15T13:57:53;13.50;91.50
61392;DHT22;47261;52.892;5.738;2022-11-15T14:00:45;13.40;91.80
61392;DHT22;47261;52.892;5.738;2022-11-15T14:03:18;13.40;91.50
61392;DHT22;47261;52.892;5.738;2022-11-15T14:08:26;13.20;91.60
61392;DHT22;47261;52.892;5.738;2022-11-15T14:11:08;13.10;91.60
61392;DHT22;47261;52.892;5.738;2022-11-15T14:13:35;13.10;91.70
61392;DHT22;47261;52.892;5.738;2022-11-15T14:16:34;13.00;91.70
61392;DHT22;47261;52.892;5.738;2022-11-15T14:19:01;12.90;91.80
61392;DHT22;47261;52.892;5.738;2022-11-15T14:21:28;12.90;91.80
61392;DHT22;47261;52.892;5.738;2022-11-15T14:24:14;12.80;91.80
61392;DHT22;47261;52.892;5.738;2022-11-15T14:26:40;12.70;91.80
61392;DHT22;47261;52.892;5.738;2022-11-15T14:31:52;12.60;91.90
61392;DHT22;47261;52.892;5.738;2022-11-15T14:34:18;12.60;91.80
61392;DHT22;47261;52.892;5.738;2022-11-15T14:36:43;12.60;91.80
61392;DHT22;47261;52.892;5.738;2022-11-15T14:39:09;12.50;91.80
61392;DHT22;47261;52.892;5.738;2022-11-15T14:41:36;12.40;91.80
61392;DHT22;47261;52.892;5.738;2022-11-15T14:44:06;12.40;91.80
61392;DHT22;47261;52.892;5.738;2022-11-15T14:46:32;12.30;91.80
61392;DHT22;47261;52.892;5.738;2022-11-15T14:48:58;12.30;91.80
61392;DHT22;47261;52.892;5.738;2022-11-15T14:51:23;12.30;91.80
61392;DHT22;47261;52.892;5.738;2022-11-15T14:53:49;12.20;91.80
61392;DHT22;47261;52.892;5.738;2022-11-15T14:56:15;12.20;91.80
61392;DHT22;47261;52.892;5.738;2022-11-15T14:58:41;12.10;91.80
61392;DHT22;47261;52.892;5.738;2022-11-15T15:03:36;12.10;91.90
61392;DHT22;47261;52.892;5.738;2022-11-15T15:06:01;12.00;91.90
61392;DHT22;47261;52.892;5.738;2022-11-15T15:08:27;12.00;92.00
61392;DHT22;47261;52.892;5.738;2022-11-15T15:10:53;11.90;92.00
61392;DHT22;47261;52.892;5.738;2022-11-15T15:13:21;11.90;92.10
61392;DHT22;47261;52.892;5.738;2022-11-15T15:15:48;11.90;92.10
61392;DHT22;47261;52.892;5.738;2022-11-15T15:18:14;11.90;92.10
61392;DHT22;47261;52.892;5.738;2022-11-15T15:20:41;11.80;92.10
61392;DHT22;47261;52.892;5.738;2022-11-15T15:23:18;11.80;92.10
61392;DHT22;47261;52.892;5.738;2022-11-15T15:25:43;11.80;92.10
61392;DHT22;47261;52.892;5.738;2022-11-15T15:28:11;11.80;92.00
61392;DHT22;47261;52.892;5.738;2022-11-15T15:30:36;11.70;92.00
61392;DHT22;47261;52.892;5.738;2022-11-15T15:33:02;11.70;92.00
61392;DHT22;47261;52.892;5.738;2022-11-15T15:35:30;11.70;92.30
61392;DHT22;47261;52.892;5.738;2022-11-15T15:37:57;11.70;92.10
61392;DHT22;47261;52.892;5.738;2022-11-15T15:40:23;11.70;92.00
61392;DHT22;47261;52.892;5.738;2022-11-15T15:42:50;11.60;92.00
61392;DHT22;47261;52.892;5.738;2022-11-15T15:45:17;11.60;92.10
61392;DHT22;47261;52.892;5.738;2022-11-15T15:47:44;11.60;92.20
61392;DHT22;47261;52.892;5.738;2022-11-15T15:52:50;11.60;92.30
61392;DHT22;47261;52.892;5.738;2022-11-15T15:55:16;11.60;92.30
61392;DHT22;47261;52.892;5.738;2022-11-15T15:57:42;11.60;92.40
61392;DHT22;47261;52.892;5.738;2022-11-15T16:00:09;11.60;92.50
61392;DHT22;47261;52.892;5.738;2022-11-15T16:02:35;11.60;92.50
61392;DHT22;47261;52.892;5.738;2022-11-15T16:05:01;11.60;92.50
61392;DHT22;47261;52.892;5.738;2022-11-15T16:07:26;11.60;92.50
61392;DHT22;47261;52.892;5.738;2022-11-15T16:09:55;11.60;92.60
61392;DHT22;47261;52.892;5.738;2022-11-15T16:12:31;11.70;92.70
61392;DHT22;47261;52.892;5.738;2022-11-15T16:14:57;11.70;92.70
61392;DHT22;47261;52.892;5.738;2022-11-15T16:17:33;11.70;92.80
61392;DHT22;47261;52.892;5.738;2022-11-15T16:20:00;11.70;92.80
61392;DHT22;47261;52.892;5.738;2022-11-15T16:22:26;11.70;92.80
61392;DHT22;47261;52.892;5.738;2022-11-15T16:24:51;11.80;92.80
61392;DHT22;47261;52.892;5.738;2022-11-15T16:27:19;11.80;93.10
61392;DHT22;47261;52.892;5.738;2022-11-15T16:29:45;11.80;92.80
61392;DHT22;47261;52.892;5.738;2022-11-15T16:32:11;11.80;92.80
61392;DHT22;47261;52.892;5.738;2022-11-15T16:34:37;11.90;92.70
61392;DHT22;47261;52.892;5.738;2022-11-15T16:37:03;11.90;92.70
61392;DHT22;47261;52.892;5.738;2022-11-15T16:39:29;11.90;92.60
61392;DHT22;47261;52.892;5.738;2022-11-15T16:41:59;11.90;92.50
61392;DHT22;47261;52.892;5.738;2022-11-15T16:44:25;12.00;92.40
61392;DHT22;47261;52.892;5.738;2022-11-15T16:46:50;12.00;92.20
61392;DHT22;47261;52.892;5.738;2022-11-15T16:49:20;12.00;92.00
61392;DHT22;47261;52.892;5.738;2022-11-15T16:51:47;12.10;91.90
61392;DHT22;47261;52.892;5.738;2022-11-15T16:54:13;12.10;92.00
61392;DHT22;47261;52.892;5.738;2022-11-15T16:56:39;12.10;91.50
61392;DHT22;47261;52.892;5.738;2022-11-15T16:59:06;12.20;91.40
61392;DHT22;47261;52.892;5.738;2022-11-15T17:01:36;12.20;91.40
61392;DHT22;47261;52.892;5.738;2022-11-15T17:04:16;12.20;91.20
61392;DHT22;47261;52.892;5.738;2022-11-15T17:06:44;12.20;91.00
61392;DHT22;47261;52.892;5.738;2022-11-15T17:09:12;12.30;90.90
61392;DHT22;47261;52.892;5.738;2022-11-15T17:11:40;12.30;90.80
61392;DHT22;47261;52.892;5.738;2022-11-15T17:14:05;12.30;90.70
61392;DHT22;47261;52.892;5.738;2022-11-15T17:16:31;12.30;90.60
61392;DHT22;47261;52.892;5.738;2022-11-15T17:18:58;12.30;90.50
61392;DHT22;47261;52.892;5.738;2022-11-15T17:21:24;12.30;90.40
61392;DHT22;47261;52.892;5.738;2022-11-15T17:23:53;12.30;90.40
61392;DHT22;47261;52.892;5.738;2022-11-15T17:26:19;12.30;90.30
61392;DHT22;47261;52.892;5.738;2022-11-15T17:28:45;12.30;90.20
61392;DHT22;47261;52.892;5.738;2022-11-15T17:31:12;12.30;90.10
61392;DHT22;47261;52.892;5.738;2022-11-15T17:33:38;12.30;90.00
61392;DHT22;47261;52.892;5.738;2022-11-15T17:36:10;12.40;90.00
61392;DHT22;47261;52.892;5.738;2022-11-15T17:38:37;12.40;90.00
61392;DHT22;47261;52.892;5.738;2022-11-15T17:41:13;12.40;89.80
61392;DHT22;47261;52.892;5.738;2022-11-15T17:43:39;12.40;90.00
61392;DHT22;47261;52.892;5.738;2022-11-15T17:46:10;12.40;89.90
61392;DHT22;47261;52.892;5.738;2022-11-15T17:48:36;12.40;89.90
61392;DHT22;47261;52.892;5.738;2022-11-15T17:51:03;12.40;89.70
61392;DHT22;47261;52.892;5.738;2022-11-15T17:53:34;12.40;89.70
61392;DHT22;47261;52.892;5.738;2022-11-15T17:56:11;12.40;89.70
61392;DHT22;47261;52.892;5.738;2022-11-15T17:58:37;12.40;89.60
61392;DHT22;47261;52.892;5.738;2022-11-15T18:01:25;12.40;89.50